createdAt,value
2022-09-12T00:00:08.814Z,89.08
2022-09-12T00:03:13.849Z,89.21
2022-09-12T00:05:55.592Z,89.39
2022-09-12T00:08:37.702Z,89.44
2022-09-12T00:11:19.845Z,89.54
2022-09-12T00:14:02.354Z,89.53
2022-09-12T00:16:44.596Z,89.39
2022-09-12T00:19:28.166Z,89.41
2022-09-12T00:22:10.090Z,89.48
2022-09-12T00:24:51.984Z,89.63
2022-09-12T00:27:33.778Z,89.86
2022-09-12T00:30:15.571Z,89.80
2022-09-12T00:32:57.364Z,89.74
2022-09-12T00:35:47.716Z,89.63
2022-09-12T00:38:29.559Z,89.63
2022-09-12T00:41:17.389Z,89.43
2022-09-12T00:44:23.758Z,89.64
2022-09-12T00:47:31.254Z,89.78
2022-09-12T00:50:15.197Z,90.06
2022-09-12T00:53:02.887Z,90.11
2022-09-12T00:55:50.458Z,90.00
2022-09-12T00:58:42.391Z,90.11
2022-09-12T01:01:27.323Z,90.10
2022-09-12T01:04:13.029Z,90.08
2022-09-12T01:06:58.519Z,90.29
2022-09-12T01:09:42.226Z,90.27
2022-09-12T01:12:24.667Z,90.36
2022-09-12T01:15:08.740Z,90.40
2022-09-12T01:18:05.869Z,90.45
2022-09-12T01:21:13.671Z,90.42
2022-09-12T01:24:04.373Z,90.42
2022-09-12T01:26:57.635Z,90.51
2022-09-12T01:30:16.599Z,90.50
2022-09-12T01:33:04.126Z,90.58
2022-09-12T01:36:03.839Z,90.55
2022-09-12T01:38:53.314Z,90.59
2022-09-12T01:41:56.098Z,90.45
2022-09-12T01:45:03.597Z,90.55
2022-09-12T01:47:54.501Z,90.60
2022-09-12T01:50:52.782Z,90.75
2022-09-12T01:53:44.266Z,90.59
2022-09-12T01:56:29.846Z,90.46
2022-09-12T01:59:30.091Z,90.40
2022-09-12T02:02:18.030Z,90.39
2022-09-12T02:05:10.186Z,90.26
2022-09-12T02:07:57.404Z,90.21
2022-09-12T02:10:48.004Z,90.23
2022-09-12T02:13:35.984Z,90.17
2022-09-12T02:16:35.411Z,90.17
2022-09-12T02:19:24.371Z,90.26
2022-09-12T02:22:10.198Z,90.30
2022-09-12T02:24:57.121Z,90.53
2022-09-12T02:27:46.894Z,90.42
2022-09-12T02:30:35.982Z,90.45
2022-09-12T02:33:25.097Z,90.69
2022-09-12T02:36:27.805Z,90.60
2022-09-12T02:39:09.905Z,90.68
2022-09-12T02:41:53.165Z,90.83
2022-09-12T02:44:36.322Z,90.81
2022-09-12T02:47:29.212Z,90.82
2022-09-12T02:50:12.132Z,90.86
2022-09-12T02:52:55.756Z,90.96
2022-09-12T02:55:40.633Z,91.15
2022-09-12T02:58:26.523Z,91.22
2022-09-12T03:01:46.325Z,91.35
2022-09-12T03:04:46.339Z,91.41
2022-09-12T03:07:49.112Z,91.55
2022-09-12T03:10:52.883Z,91.75
2022-09-12T03:13:59.011Z,91.71
2022-09-12T03:17:23.991Z,91.84
2022-09-12T03:20:15.307Z,91.97
2022-09-12T03:23:13.946Z,91.95
2022-09-12T03:26:03.059Z,92.41
2022-09-12T03:28:47.630Z,92.27
2022-09-12T03:31:29.719Z,92.29
2022-09-12T03:34:13.457Z,92.33
2022-09-12T03:36:56.173Z,92.33
2022-09-12T03:39:38.787Z,92.42
2022-09-12T03:42:20.681Z,92.26
2022-09-12T03:45:02.476Z,92.33
2022-09-12T03:47:44.473Z,92.48
2022-09-12T03:50:26.579Z,92.46
2022-09-12T03:53:08.468Z,92.69
2022-09-12T03:55:50.262Z,93.03
2022-09-12T03:58:32.157Z,93.24
2022-09-12T04:01:16.348Z,93.56
2022-09-12T04:03:58.305Z,93.72
2022-09-12T04:06:40.609Z,93.86
2022-09-12T04:09:22.505Z,94.06
2022-09-12T04:12:05.016Z,94.29
2022-09-12T04:14:46.777Z,94.29
2022-09-12T04:17:28.601Z,94.34
2022-09-12T04:20:10.804Z,94.49
2022-09-12T04:22:52.598Z,94.47
2022-09-12T04:25:34.698Z,94.69
2022-09-12T04:28:16.799Z,94.77
2022-09-12T04:31:23.662Z,94.91
2022-09-12T04:34:05.883Z,94.89
2022-09-12T04:36:47.678Z,94.98
2022-09-12T04:39:29.472Z,95.21
2022-09-12T04:42:11.570Z,95.20
2022-09-12T04:44:53.934Z,95.35
2022-09-12T04:47:36.487Z,95.44
2022-09-12T04:50:18.735Z,95.62
2022-09-12T04:53:00.484Z,95.62
2022-09-12T04:55:42.278Z,96.09
2022-09-12T04:58:24.686Z,97.19
2022-09-12T05:01:25.568Z,97.57
2022-09-12T05:04:07.933Z,96.73
2022-09-12T05:06:50.033Z,96.32
2022-09-12T05:09:32.134Z,96.15
2022-09-12T05:12:14.827Z,95.77
2022-09-12T05:14:57.359Z,95.66
2022-09-12T05:17:39.765Z,95.75
2022-09-12T05:20:21.559Z,95.92
2022-09-12T05:23:03.456Z,95.89
2022-09-12T05:25:50.033Z,95.97
2022-09-12T05:28:37.692Z,96.06
2022-09-12T05:31:22.761Z,96.44
2022-09-12T05:34:10.463Z,97.15
2022-09-12T05:36:52.287Z,97.43
2022-09-12T05:39:34.081Z,97.10
2022-09-12T05:42:15.874Z,96.90
2022-09-12T05:44:57.770Z,96.92
2022-09-12T05:47:39.564Z,96.32
2022-09-12T05:50:21.665Z,96.20
2022-09-12T05:53:03.522Z,95.63
2022-09-12T05:55:45.355Z,95.13
2022-09-12T05:58:27.146Z,94.92
2022-09-12T06:01:15.337Z,94.51
2022-09-12T06:04:01.009Z,94.07
2022-09-12T06:06:47.228Z,93.90
2022-09-12T06:09:29.373Z,93.75
2022-09-12T06:12:11.883Z,93.52
2022-09-12T06:14:54.261Z,93.75
2022-09-12T06:17:36.366Z,93.68
2022-09-12T06:20:19.172Z,93.69
2022-09-12T06:23:01.446Z,93.70
2022-09-12T06:25:50.234Z,93.79
2022-09-12T06:28:33.705Z,93.42
2022-09-12T06:31:18.671Z,93.24
2022-09-12T06:34:04.460Z,93.47
2022-09-12T06:36:48.294Z,93.77
2022-09-12T06:39:31.711Z,94.14
2022-09-12T06:42:15.057Z,94.12
2022-09-12T06:45:01.150Z,94.14
2022-09-12T06:47:42.870Z,94.07
2022-09-12T06:50:24.775Z,93.95
2022-09-12T06:53:06.832Z,93.65
2022-09-12T06:55:55.831Z,93.48
2022-09-12T06:58:38.105Z,93.18
2022-09-12T07:01:25.548Z,93.28
2022-09-12T07:04:07.428Z,93.34
2022-09-12T07:06:49.425Z,93.13
2022-09-12T07:09:31.219Z,92.84
2022-09-12T07:12:13.012Z,92.60
2022-09-12T07:14:54.808Z,92.45
2022-09-12T07:17:36.815Z,92.71
2022-09-12T07:20:18.699Z,93.33
2022-09-12T07:23:00.492Z,93.48
2022-09-12T07:25:42.389Z,93.07
2022-09-12T07:28:25.150Z,92.54
2022-09-12T07:31:08.955Z,91.99
2022-09-12T07:33:54.554Z,91.17
2022-09-12T07:36:37.453Z,90.51
2022-09-12T07:39:20.178Z,89.96
2022-09-12T07:42:02.059Z,90.00
2022-09-12T07:44:45.898Z,90.21
2022-09-12T07:47:27.690Z,89.76
2022-09-12T07:50:09.894Z,89.67
2022-09-12T07:52:55.168Z,89.31
2022-09-12T07:55:37.063Z,89.09
2022-09-12T07:58:18.827Z,89.24
2022-09-12T08:01:15.155Z,89.28
2022-09-12T08:03:59.237Z,89.25
2022-09-12T08:06:41.441Z,89.00
2022-09-12T08:09:23.233Z,88.93
2022-09-12T08:12:05.594Z,88.42
2022-09-12T08:14:47.742Z,88.61
2022-09-12T08:17:30.149Z,88.64
2022-09-12T08:20:12.488Z,88.86
2022-09-12T08:22:54.352Z,88.92
2022-09-12T08:25:36.246Z,88.53
2022-09-12T08:28:18.351Z,88.63
2022-09-12T08:31:02.361Z,88.73
2022-09-12T08:33:44.959Z,88.45
2022-09-12T08:36:28.538Z,88.30
2022-09-12T08:39:12.687Z,88.46
2022-09-12T08:42:03.747Z,88.60
2022-09-12T08:45:05.164Z,88.34
2022-09-12T08:47:47.866Z,88.45
2022-09-12T08:50:29.658Z,88.01
2022-09-12T08:53:20.566Z,86.99
2022-09-12T08:56:05.842Z,86.46
2022-09-12T08:58:48.048Z,86.48
2022-09-12T09:01:38.657Z,86.40
2022-09-12T09:04:29.345Z,85.98
2022-09-12T09:07:21.383Z,85.90
2022-09-12T09:10:08.015Z,86.10
2022-09-12T09:13:02.684Z,85.97
2022-09-12T09:15:57.625Z,85.39
2022-09-12T09:18:40.878Z,85.81
2022-09-12T09:21:30.384Z,85.42
2022-09-12T09:24:18.017Z,84.58
2022-09-12T09:27:23.647Z,83.99
2022-09-12T09:30:18.225Z,82.79
2022-09-12T09:33:03.330Z,82.68
2022-09-12T09:35:47.404Z,81.93
2022-09-12T09:38:54.409Z,79.67
2022-09-12T09:42:09.536Z,78.23
2022-09-12T09:44:54.095Z,76.67
2022-09-12T09:51:28.700Z,73.06
2022-09-12T09:54:33.982Z,72.40
2022-09-12T09:57:34.240Z,70.64
2022-09-12T10:00:28.746Z,69.55
2022-09-12T10:03:13.720Z,68.81
2022-09-12T10:06:01.209Z,64.83
2022-09-12T10:08:43.097Z,63.09
2022-09-12T10:11:28.578Z,64.33
2022-09-12T10:14:29.588Z,65.32
2022-09-12T10:17:33.912Z,64.04
2022-09-12T10:20:40.623Z,62.69
2022-09-12T10:23:25.704Z,62.54
2022-09-12T10:26:13.672Z,63.33
2022-09-12T10:28:56.753Z,61.82
2022-09-12T10:31:54.318Z,63.06
2022-09-12T10:34:43.594Z,63.17
2022-09-12T10:37:32.552Z,63.15
2022-09-12T10:40:29.892Z,63.37
2022-09-12T10:43:29.670Z,63.56
2022-09-12T10:46:17.612Z,62.26
2022-09-12T10:49:24.356Z,61.70
2022-09-12T10:52:23.517Z,60.88
2022-09-12T10:55:13.887Z,60.69
2022-09-12T10:58:13.440Z,58.85
2022-09-12T11:01:07.051Z,58.97
2022-09-12T11:04:10.861Z,58.99
2022-09-12T11:07:37.259Z,59.42
2022-09-12T11:10:27.152Z,59.72
2022-09-12T11:13:29.213Z,59.97
2022-09-12T11:16:25.542Z,59.94
2022-09-12T11:19:32.425Z,60.13
2022-09-12T11:22:36.746Z,61.10
2022-09-12T11:25:37.894Z,61.00
2022-09-12T11:28:32.179Z,60.03
2022-09-12T11:31:39.163Z,57.87
2022-09-12T11:34:33.040Z,58.20
2022-09-12T11:37:53.735Z,58.26
2022-09-12T11:40:59.399Z,57.32
2022-09-12T11:43:52.046Z,56.57
2022-09-12T11:46:40.898Z,57.46
2022-09-12T11:49:35.419Z,57.73
2022-09-12T11:52:29.249Z,58.09
2022-09-12T11:55:17.911Z,58.25
2022-09-12T11:58:00.111Z,58.46
2022-09-12T12:00:48.230Z,58.89
2022-09-12T12:03:40.993Z,59.85
2022-09-12T12:06:38.790Z,60.20
2022-09-12T12:09:21.174Z,60.10
2022-09-12T12:12:08.317Z,60.06
2022-09-12T12:14:52.275Z,60.53
2022-09-12T12:17:34.363Z,60.09
2022-09-12T12:20:18.203Z,59.88
2022-09-12T12:23:01.213Z,60.39
2022-09-12T12:26:00.732Z,61.04
2022-09-12T12:29:02.928Z,60.61
2022-09-12T12:32:04.978Z,60.73
2022-09-12T12:34:48.201Z,60.66
2022-09-12T12:37:31.438Z,61.39
2022-09-12T12:40:27.046Z,62.15
2022-09-12T12:43:32.033Z,62.45
2022-09-12T12:46:15.844Z,63.28
2022-09-12T12:49:10.736Z,63.56
2022-09-12T12:51:59.177Z,63.56
2022-09-12T12:54:41.272Z,63.81
2022-09-12T12:57:48.768Z,64.00
2022-09-12T13:00:35.054Z,63.50
2022-09-12T13:03:32.071Z,64.05
2022-09-12T13:06:31.731Z,64.19
2022-09-12T13:09:29.394Z,64.06
2022-09-12T13:12:19.891Z,64.11
2022-09-12T13:15:23.690Z,64.80
2022-09-12T13:18:14.710Z,65.30
2022-09-12T13:21:09.834Z,65.01
2022-09-12T13:24:15.285Z,64.54
2022-09-12T13:27:00.230Z,63.88
2022-09-12T13:29:42.364Z,63.11
2022-09-12T13:32:24.534Z,62.63
2022-09-12T13:35:19.738Z,62.84
2022-09-12T13:38:28.489Z,62.31
2022-09-12T13:41:32.278Z,61.56
2022-09-12T13:44:18.762Z,61.73
2022-09-12T13:47:02.928Z,61.13
2022-09-12T13:49:46.361Z,59.80
2022-09-12T13:52:34.863Z,60.01
2022-09-12T13:55:29.403Z,59.61
2022-09-12T13:58:32.290Z,60.02
2022-09-12T14:01:15.886Z,60.26
2022-09-12T14:04:16.463Z,60.55
2022-09-12T14:07:00.970Z,59.57
2022-09-12T14:09:47.315Z,59.51
2022-09-12T14:12:37.200Z,59.59
2022-09-12T14:15:26.233Z,59.79
2022-09-12T14:18:08.891Z,60.05
2022-09-12T14:20:53.396Z,60.14
2022-09-12T14:23:39.528Z,60.12
2022-09-12T14:26:23.678Z,60.30
2022-09-12T14:29:06.598Z,60.00
2022-09-12T14:32:01.600Z,60.06
2022-09-12T14:35:12.372Z,60.14
2022-09-12T14:37:54.166Z,60.08
2022-09-12T14:40:42.927Z,59.97
2022-09-12T14:43:28.726Z,60.33
2022-09-12T14:46:32.205Z,60.34
2022-09-12T14:49:37.422Z,60.80
2022-09-12T14:52:28.133Z,60.75
2022-09-12T14:55:16.305Z,60.80
2022-09-12T14:58:26.443Z,60.94
2022-09-12T15:01:08.535Z,60.63
2022-09-12T15:03:56.118Z,60.61
2022-09-12T15:06:39.572Z,60.64
2022-09-12T15:09:21.414Z,60.55
2022-09-12T15:12:03.205Z,60.38
2022-09-12T15:14:44.971Z,60.46
2022-09-12T15:17:26.793Z,60.01
2022-09-12T15:20:10.222Z,60.28
2022-09-12T15:22:52.837Z,60.29
2022-09-12T15:25:34.732Z,60.18
2022-09-12T15:28:19.788Z,60.00
2022-09-12T15:31:19.274Z,60.06
2022-09-12T15:34:02.907Z,60.34
2022-09-12T15:36:44.821Z,60.54
2022-09-12T15:39:27.742Z,60.67
2022-09-12T15:42:11.337Z,60.61
2022-09-12T15:44:53.909Z,61.06
2022-09-12T15:47:35.703Z,61.21
2022-09-12T15:50:18.008Z,61.19
2022-09-12T15:52:59.801Z,61.12
2022-09-12T15:55:42.317Z,60.93
2022-09-12T15:58:24.039Z,60.88
2022-09-12T16:01:05.899Z,61.07
2022-09-12T16:03:48.959Z,61.08
2022-09-12T16:06:37.246Z,61.25
2022-09-12T16:09:19.471Z,61.31
2022-09-12T16:12:13.489Z,61.15
2022-09-12T16:14:57.886Z,61.37
2022-09-12T16:17:39.827Z,61.45
2022-09-12T16:20:22.515Z,61.68
2022-09-12T16:23:04.411Z,62.08
2022-09-12T16:25:46.717Z,62.59
2022-09-12T16:28:29.430Z,63.12
2022-09-12T16:31:14.069Z,63.62
2022-09-12T16:33:58.022Z,64.06
2022-09-12T16:37:02.621Z,64.40
2022-09-12T16:40:04.535Z,64.91
2022-09-12T16:43:19.666Z,65.04
2022-09-12T16:46:14.185Z,65.19
2022-09-12T16:48:58.210Z,65.16
2022-09-12T16:51:59.323Z,65.11
2022-09-12T16:54:41.693Z,65.30
2022-09-12T16:57:24.526Z,65.41
2022-09-12T17:00:08.553Z,65.75
2022-09-12T17:02:50.713Z,65.96
2022-09-12T17:06:29.941Z,66.16
2022-09-12T17:09:36.204Z,66.44
2022-09-12T17:13:17.129Z,66.52
2022-09-12T17:16:50.830Z,66.65
2022-09-12T17:19:51.087Z,66.89
2022-09-12T17:22:34.126Z,67.07
2022-09-12T17:25:15.987Z,67.25
2022-09-12T17:27:57.987Z,67.38
2022-09-12T17:30:40.234Z,67.49
2022-09-12T17:33:22.612Z,67.71
2022-09-12T17:36:07.068Z,68.01
2022-09-12T17:38:50.198Z,68.17
2022-09-12T17:41:33.825Z,68.30
2022-09-12T17:44:16.437Z,68.38
2022-09-12T17:47:00.240Z,68.53
2022-09-12T17:49:42.875Z,68.71
2022-09-12T17:52:25.507Z,68.84
2022-09-12T17:55:08.734Z,69.01
2022-09-12T17:57:51.041Z,69.15
2022-09-12T18:00:52.696Z,69.38
2022-09-12T18:03:36.722Z,69.56
2022-09-12T18:06:38.121Z,69.72
2022-09-12T18:09:24.400Z,70.14
2022-09-12T18:12:08.640Z,70.34
2022-09-12T18:14:51.154Z,70.67
2022-09-12T18:17:34.175Z,70.88
2022-09-12T18:20:17.710Z,70.99
2022-09-12T18:23:00.801Z,71.10
2022-09-12T18:25:43.449Z,71.47
2022-09-12T18:28:26.161Z,71.63
2022-09-12T18:31:14.604Z,71.95
2022-09-12T18:33:57.886Z,72.32
2022-09-12T18:36:41.986Z,72.70
2022-09-12T18:39:27.711Z,73.04
2022-09-12T18:42:10.285Z,73.35
2022-09-12T18:44:52.897Z,73.78
2022-09-12T18:47:35.304Z,73.98
2022-09-12T18:50:17.712Z,74.17
2022-09-12T18:53:00.134Z,74.37
2022-09-12T19:11:54.670Z,74.35
2022-09-12T19:14:36.851Z,74.38
2022-09-12T19:21:16.317Z,75.28
2022-09-12T19:24:36.101Z,75.60
2022-09-12T19:27:18.202Z,76.06
2022-09-12T19:30:00.406Z,76.36
2022-09-12T19:32:42.709Z,76.65
2022-09-12T19:35:25.356Z,76.94
2022-09-12T19:38:30.437Z,77.16
2022-09-12T19:41:49.548Z,77.63
2022-09-12T19:44:38.524Z,77.85
2022-09-12T19:47:20.594Z,78.05
2022-09-12T19:50:02.759Z,78.47
2022-09-12T19:52:44.795Z,78.64
2022-09-12T19:59:48.426Z,78.98
2022-09-12T20:02:31.736Z,79.15
2022-09-12T20:05:16.830Z,79.25
2022-09-12T20:07:59.028Z,79.19
2022-09-12T20:10:40.923Z,79.24
2022-09-12T20:13:22.655Z,79.62
2022-09-12T20:16:09.874Z,80.12
2022-09-12T20:18:59.982Z,80.36
2022-09-12T20:21:41.906Z,80.61
2022-09-12T20:24:24.698Z,80.72
2022-09-12T20:27:06.942Z,80.88
2022-09-12T20:29:48.736Z,81.18
2022-09-12T20:32:31.040Z,81.40
2022-09-12T20:35:12.853Z,81.42
2022-09-12T20:37:54.835Z,81.59
2022-09-12T20:40:36.526Z,81.61
2022-09-12T20:43:18.828Z,81.64
2022-09-12T20:46:06.247Z,81.64
2022-09-12T20:48:48.481Z,81.99
2022-09-12T20:51:30.865Z,82.19
2022-09-12T20:54:16.839Z,82.34
2022-09-12T20:56:59.365Z,82.41
2022-09-12T20:59:42.797Z,82.47
2022-09-12T21:02:24.723Z,82.25
2022-09-12T21:05:07.510Z,82.10
2022-09-12T21:07:49.306Z,82.25
2022-09-12T21:10:34.374Z,82.34
2022-09-12T21:13:16.167Z,82.60
2022-09-12T21:16:05.919Z,82.89
2022-09-12T21:18:52.964Z,82.90
2022-09-12T21:21:34.961Z,83.15
2022-09-12T21:24:18.393Z,83.37
2022-09-12T21:27:04.141Z,83.58
2022-09-12T21:29:46.383Z,83.70
2022-09-12T21:32:32.682Z,83.79
2022-09-12T21:35:14.577Z,83.93
2022-09-12T21:37:56.576Z,84.28
2022-09-12T21:40:38.309Z,84.29
2022-09-12T21:43:20.453Z,84.34
2022-09-12T21:46:03.175Z,84.20
2022-09-12T21:48:45.592Z,84.48
2022-09-12T21:51:27.387Z,84.42
2022-09-12T21:54:09.179Z,84.30
2022-09-12T21:56:50.974Z,84.52
2022-09-12T21:59:32.765Z,84.91
2022-09-12T22:02:16.162Z,85.23
2022-09-12T22:04:58.096Z,85.21
2022-09-12T22:07:40.297Z,85.42
2022-09-12T22:10:22.093Z,85.30
2022-09-12T22:13:05.317Z,85.32
2022-09-12T22:15:52.131Z,85.56
2022-09-12T22:18:36.275Z,85.63
2022-09-12T22:21:20.220Z,85.73
2022-09-12T22:24:21.082Z,85.95
2022-09-12T22:27:05.793Z,85.73
2022-09-12T22:29:50.729Z,85.68
2022-09-12T22:32:35.963Z,85.53
2022-09-12T22:35:18.781Z,85.75
2022-09-12T22:38:00.778Z,85.74
2022-09-12T22:40:42.572Z,86.00
2022-09-12T22:43:24.468Z,86.18
2022-09-12T22:46:08.091Z,86.57
2022-09-12T22:48:50.819Z,86.82
2022-09-12T22:51:33.122Z,86.98
2022-09-12T22:54:15.020Z,86.93
2022-09-12T22:56:57.120Z,86.86
2022-09-12T22:59:38.914Z,86.96
2022-09-12T23:02:21.220Z,87.04
2022-09-12T23:05:03.115Z,86.97
2022-09-12T23:07:44.907Z,86.78
2022-09-12T23:10:27.213Z,86.80
2022-09-12T23:13:09.723Z,86.61
2022-09-12T23:15:57.770Z,86.70
2022-09-12T23:18:39.556Z,86.59
2022-09-12T23:21:22.069Z,86.48
2022-09-12T23:24:04.576Z,86.55
2022-09-12T23:26:46.882Z,86.95
2022-09-12T23:29:28.675Z,87.13
2022-09-12T23:32:10.673Z,87.27
2022-09-12T23:34:53.183Z,87.59
2022-09-12T23:37:34.876Z,87.90
2022-09-12T23:40:17.356Z,87.97
2022-09-12T23:42:59.384Z,88.12
2022-09-12T23:45:41.327Z,88.43
2022-09-12T23:48:23.583Z,88.88
2022-09-12T23:51:05.888Z,88.80
2022-09-12T23:53:48.092Z,88.92
2022-09-12T23:56:29.911Z,88.95
2022-09-12T23:59:11.678Z,89.02
